createdAt,value
2017-07-20T00:00:31.540Z,1010.03
2017-07-20T00:01:41.069Z,1010.03
2017-07-20T00:02:50.270Z,1009.99
2017-07-20T00:03:59.954Z,1009.94
2017-07-20T00:05:09.487Z,1009.91
2017-07-20T00:06:18.696Z,1009.89
2017-07-20T00:07:27.920Z,1009.87
2017-07-20T00:08:37.456Z,1009.81
2017-07-20T00:09:47.149Z,1009.86
2017-07-20T00:10:56.685Z,1009.87
2017-07-20T00:12:06.537Z,1009.84
2017-07-20T00:13:15.747Z,1009.84
2017-07-20T00:14:25.602Z,1009.9
2017-07-20T00:15:34.546Z,1009.94
2017-07-20T00:16:43.454Z,1009.94
2017-07-20T00:17:52.341Z,1009.91
2017-07-20T00:19:02.204Z,1009.89
2017-07-20T00:20:11.432Z,1009.87
2017-07-20T00:21:21.435Z,1009.83
2017-07-20T00:22:31.296Z,1009.84
2017-07-20T00:23:40.511Z,1009.88
2017-07-20T00:24:49.719Z,1009.9
2017-07-20T00:25:59.248Z,1009.93
2017-07-20T00:27:08.515Z,1009.94
2017-07-20T00:28:17.725Z,1009.92
2017-07-20T00:29:26.930Z,1009.95
2017-07-20T00:30:36.461Z,1009.9
2017-07-20T00:31:45.993Z,1009.9
2017-07-20T00:32:55.683Z,1009.86
2017-07-20T00:34:04.894Z,1009.86
2017-07-20T00:35:14.107Z,1009.85
2017-07-20T00:36:23.963Z,1009.83
2017-07-20T00:37:33.494Z,1009.86
2017-07-20T00:38:42.578Z,1009.83
2017-07-20T00:39:52.117Z,1009.81
2017-07-20T00:41:01.343Z,1009.8
2017-07-20T00:42:10.876Z,1009.77
2017-07-20T00:43:20.411Z,1009.77
2017-07-20T00:44:30.370Z,1009.77
2017-07-20T00:45:39.587Z,1009.76
2017-07-20T00:46:48.494Z,1009.73
2017-07-20T00:47:58.041Z,1009.69
2017-07-20T00:49:07.252Z,1009.64
2017-07-20T00:50:16.610Z,1009.63
2017-07-20T00:51:25.821Z,1009.59
2017-07-20T00:52:34.710Z,1009.6
2017-07-20T00:53:43.598Z,1009.55
2017-07-20T00:54:52.811Z,1009.59
2017-07-20T00:56:02.329Z,1009.57
2017-07-20T00:57:11.218Z,1009.57
2017-07-20T00:58:20.752Z,1009.59
2017-07-20T00:59:30.285Z,1009.62
2017-07-20T01:00:39.816Z,1009.61
2017-07-20T01:01:49.188Z,1009.61
2017-07-20T01:02:58.400Z,1009.65
2017-07-20T01:04:08.255Z,1009.65
2017-07-20T01:05:17.460Z,1009.58
2017-07-20T01:06:27.024Z,1009.57
2017-07-20T01:07:36.281Z,1009.58
2017-07-20T01:08:45.484Z,1009.53
2017-07-20T01:09:54.368Z,1009.52
2017-07-20T01:11:03.575Z,1009.52
2017-07-20T01:12:13.430Z,1009.52
2017-07-20T01:13:23.070Z,1009.49
2017-07-20T01:14:32.277Z,1009.47
2017-07-20T01:15:41.807Z,1009.51
2017-07-20T01:16:51.339Z,1009.51
2017-07-20T01:18:00.868Z,1009.48
2017-07-20T01:19:10.234Z,1009.49
2017-07-20T01:20:19.125Z,1009.48
2017-07-20T01:21:28.331Z,1009.49
2017-07-20T01:22:37.217Z,1009.52
2017-07-20T01:23:46.104Z,1009.49
2017-07-20T01:24:55.415Z,1009.48
2017-07-20T01:26:04.949Z,1009.43
2017-07-20T01:27:14.156Z,1009.43
2017-07-20T01:28:23.366Z,1009.38
2017-07-20T01:29:32.578Z,1009.32
2017-07-20T01:30:41.841Z,1009.41
2017-07-20T01:31:51.706Z,1009.45
2017-07-20T01:33:01.562Z,1009.53
2017-07-20T01:34:11.092Z,1009.55
2017-07-20T01:35:20.638Z,1009.62
2017-07-20T01:36:30.437Z,1009.58
2017-07-20T01:37:39.319Z,1009.58
2017-07-20T01:38:48.528Z,1009.57
2017-07-20T01:39:57.740Z,1009.58
2017-07-20T01:41:07.272Z,1009.52
2017-07-20T01:42:17.333Z,1009.55
2017-07-20T01:43:26.219Z,1009.5
2017-07-20T01:44:36.086Z,1009.52
2017-07-20T01:45:45.297Z,1009.49
2017-07-20T01:46:55.159Z,1009.47
2017-07-20T01:48:04.742Z,1009.53
2017-07-20T01:49:14.282Z,1009.57
2017-07-20T01:50:24.141Z,1009.58
2017-07-20T01:51:33.349Z,1009.55
2017-07-20T01:52:43.204Z,1009.53
2017-07-20T01:53:52.568Z,1009.5
2017-07-20T01:55:02.423Z,1009.5
2017-07-20T01:56:11.687Z,1009.53
2017-07-20T01:57:21.215Z,1009.5
2017-07-20T01:58:30.745Z,1009.53
2017-07-20T01:59:40.327Z,1009.53
2017-07-20T02:00:49.223Z,1009.54
2017-07-20T02:01:58.432Z,1009.52
2017-07-20T02:03:07.649Z,1009.46
2017-07-20T02:04:16.860Z,1009.43
2017-07-20T02:05:26.889Z,1009.44
2017-07-20T02:06:36.751Z,1009.41
2017-07-20T02:07:46.284Z,1009.42
2017-07-20T02:08:55.822Z,1009.34
2017-07-20T02:10:05.038Z,1009.35
2017-07-20T02:11:14.409Z,1009.34
2017-07-20T02:12:23.952Z,1009.37
2017-07-20T02:13:33.162Z,1009.34
2017-07-20T02:14:42.694Z,1009.33
2017-07-20T02:15:52.227Z,1009.3
2017-07-20T02:17:01.444Z,1009.28
2017-07-20T02:18:10.977Z,1009.3
2017-07-20T02:19:20.838Z,1009.25
2017-07-20T02:20:30.370Z,1009.22
2017-07-20T02:21:39.580Z,1009.2
2017-07-20T02:22:48.805Z,1009.15
2017-07-20T02:23:58.343Z,1009.12
2017-07-20T02:25:08.202Z,1009.06
2017-07-20T02:26:17.420Z,1009.01
2017-07-20T02:27:27.600Z,1008.95
2017-07-20T02:28:36.961Z,1008.93
2017-07-20T02:29:46.179Z,1008.96
2017-07-20T02:30:55.399Z,1008.93
2017-07-20T02:32:05.580Z,1008.91
2017-07-20T02:33:14.816Z,1008.85
2017-07-20T02:34:25.393Z,1008.79
2017-07-20T02:35:34.609Z,1008.77
2017-07-20T02:36:43.499Z,1008.72
2017-07-20T02:37:53.030Z,1008.69
2017-07-20T02:39:03.213Z,1008.65
2017-07-20T02:40:12.950Z,1008.68
2017-07-20T02:41:23.127Z,1008.65
2017-07-20T02:42:33.316Z,1008.62
2017-07-20T02:43:43.173Z,1008.6
2017-07-20T02:44:53.028Z,1008.56
2017-07-20T02:46:02.560Z,1008.53
2017-07-20T02:47:12.094Z,1008.51
2017-07-20T02:48:21.631Z,1008.53
2017-07-20T02:49:30.843Z,1008.48
2017-07-20T02:50:40.052Z,1008.53
2017-07-20T02:51:49.785Z,1008.53
2017-07-20T02:52:59.315Z,1008.53
2017-07-20T02:54:08.853Z,1008.56
2017-07-20T02:55:18.383Z,1008.49
2017-07-20T02:56:28.573Z,1008.47
2017-07-20T02:57:38.428Z,1008.4
2017-07-20T02:58:48.281Z,1008.38
2017-07-20T02:59:57.490Z,1008.32
2017-07-20T03:01:06.379Z,1008.3
2017-07-20T03:02:15.931Z,1008.27
2017-07-20T03:03:25.890Z,1008.19
2017-07-20T03:04:35.422Z,1008.13
2017-07-20T03:05:44.308Z,1008.1
2017-07-20T03:06:53.517Z,1008.06
2017-07-20T03:08:03.049Z,1008.01
2017-07-20T03:09:12.407Z,1008.03
2017-07-20T03:10:21.629Z,1008.02
2017-07-20T03:11:31.483Z,1008.03
2017-07-20T03:12:40.691Z,1008.01
2017-07-20T03:13:50.547Z,1007.99
2017-07-20T03:15:00.876Z,1008
2017-07-20T03:16:10.086Z,1008.02
2017-07-20T03:17:18.972Z,1008
2017-07-20T03:18:27.860Z,1007.98
2017-07-20T03:19:37.400Z,1007.99
2017-07-20T03:20:46.755Z,1008.05
2017-07-20T03:21:56.612Z,1008.14
2017-07-20T03:23:05.496Z,1008.14
2017-07-20T03:24:14.712Z,1008.16
2017-07-20T03:25:24.247Z,1008.12
2017-07-20T03:26:34.254Z,1008.09
2017-07-20T03:27:44.110Z,1008.07
2017-07-20T03:28:53.643Z,1008.05
2017-07-20T03:30:03.182Z,1008.06
2017-07-20T03:31:13.056Z,1008.05
2017-07-20T03:32:22.974Z,1008
2017-07-20T03:33:32.505Z,1007.91
2017-07-20T03:34:41.721Z,1007.85
2017-07-20T03:35:51.268Z,1007.85
2017-07-20T03:37:00.810Z,1007.85
2017-07-20T03:38:11.462Z,1007.83
2017-07-20T03:39:20.670Z,1007.89
2017-07-20T03:40:29.879Z,1007.95
2017-07-20T03:41:38.765Z,1007.99
2017-07-20T03:42:47.972Z,1007.99
2017-07-20T03:43:57.332Z,1008.03
2017-07-20T03:45:06.542Z,1008.01
2017-07-20T03:46:15.752Z,1008.05
2017-07-20T03:47:25.294Z,1008.01
2017-07-20T03:48:35.160Z,1008.03
2017-07-20T03:49:44.421Z,1007.98
2017-07-20T03:50:53.304Z,1007.99
2017-07-20T03:52:02.517Z,1008.02
2017-07-20T03:53:12.694Z,1007.99
2017-07-20T03:54:22.225Z,1007.98
2017-07-20T03:55:32.331Z,1007.95
2017-07-20T03:56:41.867Z,1007.95
2017-07-20T03:57:51.078Z,1008.04
2017-07-20T03:59:00.302Z,1008.03
2017-07-20T04:00:10.164Z,1008.05
2017-07-20T04:01:19.349Z,1008.12
2017-07-20T04:02:29.526Z,1008.16
2017-07-20T04:03:39.059Z,1008.19
2017-07-20T04:04:48.299Z,1008.15
2017-07-20T04:05:58.169Z,1008.18
2017-07-20T04:07:07.530Z,1008.18
2017-07-20T04:08:16.739Z,1008.19
2017-07-20T04:09:25.968Z,1008.18
2017-07-20T04:10:35.831Z,1008.16
2017-07-20T04:11:45.414Z,1008.18
2017-07-20T04:12:54.677Z,1008.16
2017-07-20T04:14:04.856Z,1008.16
2017-07-20T04:15:14.384Z,1008.18
2017-07-20T04:16:23.591Z,1008.16
2017-07-20T04:17:33.446Z,1008.21
2017-07-20T04:18:42.704Z,1008.25
2017-07-20T04:19:52.237Z,1008.25
2017-07-20T04:21:02.096Z,1008.23
2017-07-20T04:22:11.304Z,1008.16
2017-07-20T04:23:20.202Z,1008.15
2017-07-20T04:24:29.886Z,1008.12
2017-07-20T04:25:39.096Z,1008.19
2017-07-20T04:26:48.633Z,1008.23
2017-07-20T04:27:57.848Z,1008.2
2017-07-20T04:29:06.935Z,1008.24
2017-07-20T04:30:16.624Z,1008.3
2017-07-20T04:31:25.512Z,1008.35
2017-07-20T04:32:35.377Z,1008.37
2017-07-20T04:33:44.276Z,1008.44
2017-07-20T04:34:53.813Z,1008.56
2017-07-20T04:36:03.029Z,1008.75
2017-07-20T04:37:11.917Z,1008.98
2017-07-20T04:38:21.462Z,1009.23
2017-07-20T04:39:30.670Z,1009.34
2017-07-20T04:40:39.879Z,1009.21
2017-07-20T04:41:48.865Z,1008.95
2017-07-20T04:42:58.088Z,1008.91
2017-07-20T04:44:07.306Z,1008.98
2017-07-20T04:45:16.190Z,1009.15
2017-07-20T04:46:25.403Z,1009.16
2017-07-20T04:47:34.662Z,1009.22
2017-07-20T04:48:43.873Z,1009.01
2017-07-20T04:49:53.403Z,1008.96
2017-07-20T04:51:02.937Z,1009.07
2017-07-20T04:52:12.469Z,1009.05
2017-07-20T04:53:21.727Z,1008.95
2017-07-20T04:54:30.615Z,1008.88
2017-07-20T04:55:40.469Z,1009.04
2017-07-20T04:56:49.684Z,1008.99
2017-07-20T04:57:58.905Z,1008.85
2017-07-20T04:59:08.266Z,1008.84
2017-07-20T05:00:17.801Z,1008.88
2017-07-20T05:01:27.023Z,1008.89
2017-07-20T05:02:36.237Z,1008.81
2017-07-20T05:03:45.779Z,1008.73
2017-07-20T05:04:54.768Z,1008.75
2017-07-20T05:06:04.555Z,1008.74
2017-07-20T05:07:14.099Z,1008.67
2017-07-20T05:08:23.308Z,1008.65
2017-07-20T05:09:32.857Z,1008.6
2017-07-20T05:10:42.178Z,1008.59
2017-07-20T05:11:51.284Z,1008.53
2017-07-20T05:13:00.494Z,1008.52
2017-07-20T05:14:10.368Z,1008.54
2017-07-20T05:15:19.705Z,1008.51
2017-07-20T05:16:28.717Z,1008.53
2017-07-20T05:17:38.768Z,1008.46
2017-07-20T05:18:48.049Z,1008.44
2017-07-20T05:19:57.385Z,1008.45
2017-07-20T05:21:07.399Z,1008.42
2017-07-20T05:22:16.723Z,1008.33
2017-07-20T05:23:26.107Z,1008.29
2017-07-20T05:24:35.484Z,1008.36
2017-07-20T05:25:44.819Z,1008.24
2017-07-20T05:26:54.148Z,1008.21
2017-07-20T05:28:03.457Z,1008.22
2017-07-20T05:29:12.763Z,1008.18
2017-07-20T05:30:22.610Z,1008.15
2017-07-20T05:31:32.134Z,1008.14
2017-07-20T05:32:41.797Z,1008.08
2017-07-20T05:33:51.150Z,1008.12
2017-07-20T05:35:00.819Z,1008.13
2017-07-20T05:36:10.192Z,1008.11
2017-07-20T05:37:19.525Z,1008.1
2017-07-20T05:38:28.517Z,1008.13
2017-07-20T05:39:37.877Z,1008.1
2017-07-20T05:40:47.555Z,1008.11
2017-07-20T05:41:57.249Z,1008.05
2017-07-20T05:43:06.936Z,1008.03
2017-07-20T05:44:16.624Z,1007.99
2017-07-20T05:45:25.956Z,1008
2017-07-20T05:46:35.611Z,1007.99
2017-07-20T05:47:44.813Z,1007.98
2017-07-20T05:48:54.799Z,1007.99
2017-07-20T05:50:03.763Z,1007.95
2017-07-20T05:51:13.476Z,1007.97
2017-07-20T05:52:23.433Z,1007.99
2017-07-20T05:53:32.691Z,1007.96
2017-07-20T05:54:41.684Z,1007.95
2017-07-20T05:55:51.016Z,1007.91
2017-07-20T05:56:59.973Z,1007.92
2017-07-20T05:58:09.627Z,1007.92
2017-07-20T05:59:19.457Z,1007.9
2017-07-20T06:00:28.436Z,1007.85
2017-07-20T06:01:37.776Z,1007.81
2017-07-20T06:02:46.789Z,1007.78
2017-07-20T06:03:56.321Z,1007.78
2017-07-20T06:05:06.069Z,1007.79
2017-07-20T06:06:15.608Z,1007.77
2017-07-20T06:07:25.150Z,1007.76
2017-07-20T06:08:34.358Z,1007.74
2017-07-20T06:09:44.364Z,1007.7
2017-07-20T06:10:54.938Z,1007.7
2017-07-20T06:12:04.150Z,1007.7
2017-07-20T06:13:13.692Z,1007.75
2017-07-20T06:14:23.226Z,1007.84
2017-07-20T06:15:32.114Z,1007.9
2017-07-20T06:16:41.699Z,1007.97
2017-07-20T06:17:50.910Z,1008.04
2017-07-20T06:19:00.118Z,1008.02
2017-07-20T06:20:09.980Z,1008.01
2017-07-20T06:21:19.517Z,1008.03
2017-07-20T06:22:29.541Z,1008.13
2017-07-20T06:23:38.769Z,1008.23
2017-07-20T06:24:48.305Z,1008.35
2017-07-20T06:25:58.171Z,1008.47
2017-07-20T06:27:08.039Z,1008.57
2017-07-20T06:28:17.674Z,1008.64
2017-07-20T06:29:26.914Z,1008.71
2017-07-20T06:30:36.771Z,1008.69
2017-07-20T06:31:45.660Z,1008.91
2017-07-20T06:32:55.842Z,1009.12
2017-07-20T06:34:06.177Z,1009.31
2017-07-20T06:35:15.389Z,1009.23
2017-07-20T06:36:24.289Z,1009.29
2017-07-20T06:37:33.517Z,1009.59
2017-07-20T06:38:42.742Z,1009.47
2017-07-20T06:39:52.328Z,1009.02
2017-07-20T06:41:01.880Z,1009.18
2017-07-20T06:42:11.743Z,1009.81
2017-07-20T06:43:21.312Z,1009.96
2017-07-20T06:44:30.219Z,1009.42
2017-07-20T06:45:39.816Z,1009.24
2017-07-20T06:46:49.027Z,1009.84
2017-07-20T06:47:58.236Z,1010.12
2017-07-20T06:49:07.450Z,1009.76
2017-07-20T06:50:16.680Z,1009.69
2017-07-20T06:51:26.958Z,1009.98
2017-07-20T06:52:36.167Z,1010.1
2017-07-20T06:53:45.713Z,1009.98
2017-07-20T06:54:55.269Z,1009.84
2017-07-20T06:56:04.845Z,1009.74
2017-07-20T06:57:14.382Z,1009.8
2017-07-20T06:58:23.588Z,1009.81
2017-07-20T06:59:33.125Z,1009.89
2017-07-20T07:00:42.343Z,1009.99
2017-07-20T07:01:51.556Z,1009.9
2017-07-20T07:03:01.296Z,1009.74
2017-07-20T07:04:10.509Z,1009.73
2017-07-20T07:05:19.725Z,1009.87
2017-07-20T07:06:28.946Z,1009.83
2017-07-20T07:07:38.154Z,1009.84
2017-07-20T07:08:47.188Z,1009.74
2017-07-20T07:09:56.404Z,1009.74
2017-07-20T07:11:06.003Z,1009.78
2017-07-20T07:12:15.539Z,1009.79
2017-07-20T07:13:26.100Z,1009.74
2017-07-20T07:14:36.108Z,1009.76
2017-07-20T07:15:45.319Z,1009.76
2017-07-20T07:16:54.204Z,1009.72
2017-07-20T07:18:03.743Z,1009.68
2017-07-20T07:19:13.605Z,1009.66
2017-07-20T07:20:22.591Z,1009.68
2017-07-20T07:21:31.483Z,1009.7
2017-07-20T07:22:40.375Z,1009.67
2017-07-20T07:23:49.260Z,1009.68
2017-07-20T07:24:58.470Z,1009.63
2017-07-20T07:26:07.658Z,1009.63
2017-07-20T07:27:17.193Z,1009.6
2017-07-20T07:28:26.101Z,1009.57
2017-07-20T07:29:36.544Z,1009.57
2017-07-20T07:30:45.754Z,1009.54
2017-07-20T07:31:54.793Z,1009.55
2017-07-20T07:33:03.701Z,1009.54
2017-07-20T07:34:13.240Z,1009.47
2017-07-20T07:35:22.777Z,1009.4
2017-07-20T07:36:32.311Z,1009.4
2017-07-20T07:37:41.349Z,1009.43
2017-07-20T07:38:50.570Z,1009.39
2017-07-20T07:39:59.834Z,1009.34
2017-07-20T07:41:09.413Z,1009.27
2017-07-20T07:42:18.332Z,1009.21
2017-07-20T07:43:27.337Z,1009.2
2017-07-20T07:44:36.552Z,1009.21
2017-07-20T07:45:45.806Z,1009.16
2017-07-20T07:46:55.176Z,1009.1
2017-07-20T07:48:04.740Z,1009.05
2017-07-20T07:49:13.689Z,1009.08
2017-07-20T07:50:22.618Z,1009.1
2017-07-20T07:51:32.209Z,1009.06
2017-07-20T07:52:41.482Z,1008.98
2017-07-20T07:53:51.086Z,1008.96
2017-07-20T07:55:00.966Z,1008.93
2017-07-20T07:56:10.257Z,1008.91
2017-07-20T07:57:19.546Z,1008.94
2017-07-20T07:58:28.904Z,1008.88
2017-07-20T07:59:37.850Z,1008.86
2017-07-20T08:00:47.611Z,1008.9
2017-07-20T08:01:57.152Z,1008.93
2017-07-20T08:03:06.835Z,1008.88
2017-07-20T08:04:16.398Z,1008.9
2017-07-20T08:05:25.616Z,1008.94
2017-07-20T08:06:35.227Z,1008.93
2017-07-20T08:07:44.599Z,1008.95
2017-07-20T08:08:54.215Z,1008.87
2017-07-20T08:10:03.931Z,1008.88
2017-07-20T08:11:13.519Z,1008.89
2017-07-20T08:12:23.141Z,1008.88
2017-07-20T08:13:32.083Z,1008.86
2017-07-20T08:14:41.636Z,1008.86
2017-07-20T08:15:50.537Z,1008.85
2017-07-20T08:17:00.126Z,1008.86
2017-07-20T08:18:10.355Z,1008.92
2017-07-20T08:19:19.286Z,1008.9
2017-07-20T08:20:28.520Z,1008.92
2017-07-20T08:21:37.431Z,1008.95
2017-07-20T08:22:46.636Z,1008.94
2017-07-20T08:23:57.041Z,1009
2017-07-20T08:25:06.605Z,1008.99
2017-07-20T08:26:15.852Z,1009.01
2017-07-20T08:27:25.098Z,1008.96
2017-07-20T08:28:34.123Z,1008.94
2017-07-20T08:29:43.540Z,1008.91
2017-07-20T08:30:52.859Z,1008.96
2017-07-20T08:32:02.108Z,1008.99
2017-07-20T08:33:11.390Z,1009.04
2017-07-20T08:34:20.631Z,1009.07
2017-07-20T08:35:29.674Z,1009.09
2017-07-20T08:36:38.568Z,1009.09
2017-07-20T08:37:47.810Z,1009.15
2017-07-20T08:38:57.396Z,1009.21
2017-07-20T08:40:06.289Z,1009.22
2017-07-20T08:41:16.618Z,1009.24
2017-07-20T08:42:25.546Z,1009.24
2017-07-20T08:43:34.468Z,1009.28
2017-07-20T08:44:43.736Z,1009.27
2017-07-20T08:45:53.301Z,1009.26
2017-07-20T08:47:02.779Z,1009.27
2017-07-20T08:48:12.644Z,1009.31
2017-07-20T08:49:21.575Z,1009.33
2017-07-20T08:50:31.125Z,1009.32
2017-07-20T08:51:40.682Z,1009.38
2017-07-20T08:52:50.069Z,1009.37
2017-07-20T08:53:58.993Z,1009.38
2017-07-20T08:55:08.531Z,1009.38
2017-07-20T08:56:18.722Z,1009.39
2017-07-20T08:57:28.014Z,1009.39
2017-07-20T08:58:37.377Z,1009.45
2017-07-20T08:59:46.280Z,1009.39
2017-07-20T09:00:55.487Z,1009.37
2017-07-20T09:02:05.710Z,1009.35
2017-07-20T09:03:14.942Z,1009.31
2017-07-20T09:04:24.532Z,1009.27
2017-07-20T09:05:34.739Z,1009.32
2017-07-20T09:06:45.108Z,1009.33
2017-07-20T09:07:53.994Z,1009.4
2017-07-20T09:09:03.540Z,1009.43
2017-07-20T09:10:12.539Z,1009.44
2017-07-20T09:11:21.771Z,1009.39
2017-07-20T09:12:31.003Z,1009.4
2017-07-20T09:13:41.012Z,1009.39
2017-07-20T09:14:50.574Z,1009.42
2017-07-20T09:15:59.795Z,1009.43
2017-07-20T09:17:09.515Z,1009.4
2017-07-20T09:18:18.987Z,1009.38
2017-07-20T09:19:28.215Z,1009.4
2017-07-20T09:20:37.775Z,1009.38
2017-07-20T09:21:47.108Z,1009.41
2017-07-20T09:22:56.648Z,1009.44
2017-07-20T09:24:06.218Z,1009.46
2017-07-20T09:25:15.148Z,1009.48
2017-07-20T09:26:24.053Z,1009.47
2017-07-20T09:27:33.891Z,1009.44
2017-07-20T09:28:42.911Z,1009.45
2017-07-20T09:29:51.814Z,1009.46
2017-07-20T09:31:01.393Z,1009.5
2017-07-20T09:32:10.957Z,1009.48
2017-07-20T09:33:19.941Z,1009.5
2017-07-20T09:34:29.475Z,1009.5
2017-07-20T09:35:38.692Z,1009.48
2017-07-20T09:36:47.695Z,1009.48
2017-07-20T09:37:57.452Z,1009.47
2017-07-20T09:39:07.513Z,1009.51
2017-07-20T09:40:17.379Z,1009.47
2017-07-20T09:41:26.913Z,1009.48
2017-07-20T09:42:36.123Z,1009.48
2017-07-20T09:43:45.667Z,1009.48
2017-07-20T09:44:55.304Z,1009.52
2017-07-20T09:46:04.203Z,1009.52
2017-07-20T09:47:13.436Z,1009.56
2017-07-20T09:48:22.332Z,1009.6
2017-07-20T09:49:31.222Z,1009.59
2017-07-20T09:50:40.490Z,1009.58
2017-07-20T09:51:49.417Z,1009.55
2017-07-20T09:52:59.036Z,1009.53
2017-07-20T09:54:07.977Z,1009.47
2017-07-20T09:55:16.949Z,1009.48
2017-07-20T09:56:26.472Z,1009.5
2017-07-20T09:57:35.361Z,1009.5
2017-07-20T09:58:44.614Z,1009.53
2017-07-20T09:59:54.156Z,1009.51
2017-07-20T10:01:03.737Z,1009.55
2017-07-20T10:02:13.693Z,1009.56
2017-07-20T10:03:22.907Z,1009.5
2017-07-20T10:04:32.442Z,1009.46
2017-07-20T10:05:41.333Z,1009.52
2017-07-20T10:06:50.867Z,1009.52
2017-07-20T10:08:01.271Z,1009.53
2017-07-20T10:09:11.133Z,1009.56
2017-07-20T10:10:20.676Z,1009.5
2017-07-20T10:11:30.220Z,1009.51
2017-07-20T10:12:39.110Z,1009.45
2017-07-20T10:13:48.523Z,1009.45
2017-07-20T10:14:57.739Z,1009.4
2017-07-20T10:16:07.921Z,1009.42
2017-07-20T10:17:17.459Z,1009.45
2017-07-20T10:18:26.667Z,1009.44
2017-07-20T10:19:36.033Z,1009.47
2017-07-20T10:20:45.566Z,1009.45
2017-07-20T10:21:54.453Z,1009.44
2017-07-20T10:23:03.671Z,1009.44
2017-07-20T10:24:13.535Z,1009.44
2017-07-20T10:25:22.896Z,1009.44
2017-07-20T10:26:31.786Z,1009.37
2017-07-20T10:27:41.342Z,1009.33
2017-07-20T10:28:50.886Z,1009.34
2017-07-20T10:30:00.744Z,1009.32
2017-07-20T10:31:10.584Z,1009.32
2017-07-20T10:32:20.763Z,1009.29
2017-07-20T10:33:29.659Z,1009.26
2017-07-20T10:34:39.846Z,1009.25
2017-07-20T10:35:49.058Z,1009.25
2017-07-20T10:36:58.698Z,1009.22
2017-07-20T10:38:08.237Z,1009.23
2017-07-20T10:39:18.096Z,1009.23
2017-07-20T10:40:27.307Z,1009.23
2017-07-20T10:41:36.847Z,1009.21
2017-07-20T10:42:46.218Z,1009.21
2017-07-20T10:43:55.756Z,1009.23
2017-07-20T10:45:04.641Z,1009.26
2017-07-20T10:46:13.528Z,1009.19
2017-07-20T10:47:23.065Z,1009.21
2017-07-20T10:48:32.750Z,1009.16
2017-07-20T10:49:41.969Z,1009.13
2017-07-20T10:50:51.511Z,1009.15
2017-07-20T10:52:01.047Z,1009.12
2017-07-20T10:53:10.906Z,1009.09
2017-07-20T10:54:21.291Z,1009.06
2017-07-20T10:55:30.824Z,1009.08
2017-07-20T10:56:40.364Z,1009.08
2017-07-20T10:57:49.593Z,1009.07
2017-07-20T10:58:58.930Z,1009.04
2017-07-20T11:00:08.351Z,1009.04
2017-07-20T11:01:17.899Z,1009.03
2017-07-20T11:02:26.787Z,1009.07
2017-07-20T11:03:35.677Z,1009.09
2017-07-20T11:04:45.211Z,1009.14
2017-07-20T11:05:54.901Z,1009.15
2017-07-20T11:07:04.116Z,1009.18
2017-07-20T11:08:13.337Z,1009.19
2017-07-20T11:09:23.215Z,1009.21
2017-07-20T11:10:32.744Z,1009.21
2017-07-20T11:11:42.166Z,1009.15
2017-07-20T11:12:51.069Z,1009.14
2017-07-20T11:14:00.415Z,1009.14
2017-07-20T11:15:09.792Z,1009.14
2017-07-20T11:16:18.801Z,1009.17
2017-07-20T11:17:28.169Z,1009.15
2017-07-20T11:18:37.135Z,1009.17
2017-07-20T11:19:46.047Z,1009.16
2017-07-20T11:20:55.657Z,1009.11
2017-07-20T11:22:04.942Z,1009.1
2017-07-20T11:23:14.498Z,1009.03
2017-07-20T11:24:23.456Z,1009.07
2017-07-20T11:25:32.469Z,1009.04
2017-07-20T11:26:41.820Z,1009.06
2017-07-20T11:27:50.822Z,1009.06
2017-07-20T11:29:00.082Z,1009.05
2017-07-20T11:30:09.050Z,1009.04
2017-07-20T11:31:18.634Z,1009.02
2017-07-20T11:32:29.148Z,1008.99
2017-07-20T11:33:38.245Z,1008.97
2017-07-20T11:34:47.835Z,1008.96
2017-07-20T11:35:57.100Z,1008.96
2017-07-20T11:37:06.740Z,1008.96
2017-07-20T11:38:16.011Z,1008.95
2017-07-20T11:39:25.241Z,1008.97
2017-07-20T11:40:34.719Z,1008.99
2017-07-20T11:41:43.612Z,1009.02
2017-07-20T11:42:53.173Z,1009.04
2017-07-20T11:44:02.770Z,1009.04
2017-07-20T11:45:12.373Z,1009.08
2017-07-20T11:46:22.272Z,1009.04
2017-07-20T11:47:31.928Z,1009.01
2017-07-20T11:48:41.118Z,1009
2017-07-20T11:49:50.093Z,1008.96
2017-07-20T11:50:59.158Z,1008.96
2017-07-20T11:52:08.479Z,1008.96
2017-07-20T11:53:17.802Z,1008.93
2017-07-20T11:54:27.422Z,1008.93
2017-07-20T11:55:37.389Z,1008.94
2017-07-20T11:56:47.020Z,1008.9
2017-07-20T11:57:56.685Z,1008.93
2017-07-20T11:59:05.982Z,1008.88
2017-07-20T12:00:15.334Z,1008.86
2017-07-20T12:01:25.622Z,1008.85
2017-07-20T12:02:35.252Z,1008.85
2017-07-20T12:03:46.481Z,1008.85
2017-07-20T12:04:55.863Z,1008.87
2017-07-20T12:06:05.156Z,1008.88
2017-07-20T12:07:14.170Z,1008.9
2017-07-20T12:08:24.395Z,1008.88
2017-07-20T12:09:33.828Z,1008.86
2017-07-20T12:10:43.128Z,1008.84
2017-07-20T12:11:52.982Z,1008.85
2017-07-20T12:13:02.473Z,1008.85
2017-07-20T12:14:11.784Z,1008.81
2017-07-20T12:15:21.226Z,1008.8
2017-07-20T12:16:30.504Z,1008.82
2017-07-20T12:17:40.538Z,1008.83
2017-07-20T12:18:50.587Z,1008.82
2017-07-20T12:19:59.561Z,1008.82
2017-07-20T12:21:08.684Z,1008.87
2017-07-20T12:22:17.647Z,1008.83
2017-07-20T12:23:27.113Z,1008.8
2017-07-20T12:24:36.104Z,1008.8
2017-07-20T12:25:45.763Z,1008.8
2017-07-20T12:26:55.242Z,1008.83
2017-07-20T12:28:04.296Z,1008.79
2017-07-20T12:29:13.671Z,1008.83
2017-07-20T12:30:23.512Z,1008.77
2017-07-20T12:31:32.461Z,1008.81
2017-07-20T12:32:42.787Z,1008.83
2017-07-20T12:33:52.161Z,1008.9
2017-07-20T12:35:01.366Z,1008.88
2017-07-20T12:36:10.986Z,1008.88
2017-07-20T12:37:20.592Z,1008.86
2017-07-20T12:38:29.604Z,1008.86
2017-07-20T12:39:38.934Z,1008.9
2017-07-20T12:40:47.996Z,1008.87
2017-07-20T12:41:57.371Z,1008.87
2017-07-20T12:43:07.063Z,1008.9
2017-07-20T12:44:16.805Z,1008.9
2017-07-20T12:45:27.001Z,1008.92
2017-07-20T12:46:35.978Z,1008.9
2017-07-20T12:47:45.613Z,1008.96
2017-07-20T12:48:54.647Z,1008.92
2017-07-20T12:50:04.230Z,1008.91
2017-07-20T12:51:13.238Z,1008.96
2017-07-20T12:52:23.249Z,1008.95
2017-07-20T12:53:32.735Z,1009
2017-07-20T12:54:42.042Z,1009.03
2017-07-20T12:55:52.146Z,1009
2017-07-20T12:57:02.194Z,1009.02
2017-07-20T12:58:11.537Z,1008.96
2017-07-20T12:59:20.818Z,1008.98
2017-07-20T13:00:30.472Z,1008.99
2017-07-20T13:01:39.467Z,1008.97
2017-07-20T13:02:48.667Z,1008.98
2017-07-20T13:03:58.665Z,1008.98
2017-07-20T13:05:07.743Z,1008.97
2017-07-20T13:06:16.752Z,1008.96
2017-07-20T13:07:26.461Z,1008.94
2017-07-20T13:08:35.448Z,1008.92
2017-07-20T13:09:44.893Z,1008.93
2017-07-20T13:10:54.095Z,1008.9
2017-07-20T13:12:04.193Z,1008.89
2017-07-20T13:13:13.791Z,1008.84
2017-07-20T13:14:23.753Z,1008.88
2017-07-20T13:15:33.082Z,1008.93
2017-07-20T13:16:43.054Z,1008.87
2017-07-20T13:17:52.048Z,1008.83
2017-07-20T13:19:01.277Z,1008.85
2017-07-20T13:20:11.269Z,1008.85
2017-07-20T13:21:22.541Z,1008.8
2017-07-20T13:22:32.900Z,1008.82
2017-07-20T13:23:41.811Z,1008.8
2017-07-20T13:24:51.333Z,1008.81
2017-07-20T13:26:01.424Z,1008.84
2017-07-20T13:27:10.696Z,1008.84
2017-07-20T13:28:19.653Z,1008.88
2017-07-20T13:29:29.253Z,1008.88
2017-07-20T13:30:39.595Z,1008.87
2017-07-20T13:31:49.157Z,1008.88
2017-07-20T13:32:58.446Z,1008.89
2017-07-20T13:34:08.117Z,1008.84
2017-07-20T13:35:17.106Z,1008.78
2017-07-20T13:36:26.534Z,1008.77
2017-07-20T13:37:35.500Z,1008.76
2017-07-20T13:38:45.076Z,1008.76
2017-07-20T13:39:54.304Z,1008.67
2017-07-20T13:41:03.309Z,1008.73
2017-07-20T13:42:12.749Z,1008.73
2017-07-20T13:43:22.357Z,1008.79
2017-07-20T13:44:31.978Z,1008.81
2017-07-20T13:45:41.242Z,1008.8
2017-07-20T13:46:50.621Z,1008.77
2017-07-20T13:48:00.275Z,1008.8
2017-07-20T13:49:10.521Z,1008.79
2017-07-20T13:50:19.754Z,1008.78
2017-07-20T13:51:29.275Z,1008.81
2017-07-20T13:52:38.479Z,1008.82
2017-07-20T13:53:47.926Z,1008.79
2017-07-20T13:54:57.938Z,1008.82
2017-07-20T13:56:07.878Z,1008.88
2017-07-20T13:57:17.015Z,1008.91
2017-07-20T13:58:27.179Z,1008.85
2017-07-20T13:59:38.143Z,1008.85
2017-07-20T14:00:48.142Z,1008.81
2017-07-20T14:01:57.477Z,1008.77
2017-07-20T14:03:07.697Z,1008.76